Time;durP1;ratioP1;P1;durP2;ratioP2;P2;SDS_P1;SDS_P2;PMS_P1;PMS_P2;Temp;Humidity;BMP_temperature;BMP_pressure;BME280_temperature;BME280_humidity;BME280_pressure;Samples;Min_cycle;Max_cycle;Signal;HPM_P1;HPM_P2
2023/09/26 00:00:58;;;;;;;;;;;18.30;48.70;;;17.48;50.62;102104.41;12247021;19;20351;-82
2023/09/26 00:04:59;;;;;;;;;;;18.30;48.70;;;17.37;50.55;102090.19;12244438;19;19923;-82
2023/09/26 00:09:01;;;;;;;;;;;18.20;48.60;;;17.40;50.38;102104.06;12240198;19;19925;-81
2023/09/26 00:13:03;;;;;;;;;;;18.20;48.70;;;17.37;50.75;102106.03;12243522;19;19914;-82
2023/09/26 00:17:06;;;;;;;;;;;18.10;48.70;;;17.36;50.66;102105.19;12238290;19;19923;-82
2023/09/26 00:21:08;;;;;;;;;;;18.10;48.70;;;17.34;50.45;102109.72;12244405;19;19923;-81
2023/09/26 00:25:10;;;;;;;;;;;18.10;48.80;;;17.32;50.68;102105.47;12242624;19;19934;-81
2023/09/26 00:29:12;;;;;;;;;;;18.10;48.70;;;17.29;50.52;102100.38;12242123;19;20345;-82
2023/09/26 00:33:13;;;;;;;;;;;18.00;48.70;;;17.20;50.73;102096.50;12241618;19;20064;-82
2023/09/26 00:37:16;;;;;;;;;;;18.00;48.70;;;17.17;50.62;102097.53;12243352;19;20271;-81
2023/09/26 00:41:18;;;;;;;;;;;18.00;48.70;;;17.09;50.55;102094.50;12244474;19;20285;-82
2023/09/26 00:45:20;;;;;;;;;;;17.90;48.70;;;17.10;50.68;102106.78;12240276;19;19938;-82
2023/09/26 00:49:21;;;;;;;;;;;17.90;48.70;;;17.03;50.89;102097.53;12240399;19;19978;-82
2023/09/26 00:53:25;;;;;;;;;;;17.80;48.80;;;17.01;50.51;102102.91;12242031;19;19987;-81
2023/09/26 00:57:26;;;;;;;;;;;17.80;48.80;;;16.98;50.74;102089.03;12241620;19;19934;-81
2023/09/26 01:01:30;;;;;;;;;;;17.80;48.70;;;16.97;50.82;102084.72;12241122;19;20620;-82
2023/09/26 01:05:32;;;;;;;;;;;17.80;48.80;;;16.95;50.49;102089.22;12235397;19;19919;-82
2023/09/26 01:09:34;;;;;;;;;;;17.70;48.70;;;16.87;50.82;102083.56;12239844;19;19991;-82
2023/09/26 01:13:35;;;;;;;;;;;17.70;48.70;;;16.74;50.47;102071.09;12240696;19;19950;-82
2023/09/26 01:17:39;;;;;;;;;;;17.60;48.70;;;16.75;50.62;102080.69;12232730;19;19950;-82
2023/09/26 01:21:40;;;;;;;;;;;17.60;48.70;;;16.66;50.70;102069.81;12253424;19;19915;-82
2023/09/26 01:25:42;;;;;;;;;;;17.50;48.70;;;16.56;50.62;102064.25;12251521;19;19970;-82
2023/09/26 01:29:46;;;;;;;;;;;17.50;48.80;;;16.63;50.70;102077.91;12249600;19;19927;-82
2023/09/26 01:33:48;;;;;;;;;;;17.40;48.90;;;16.54;50.71;102066.13;12253239;19;19914;-82
2023/09/26 01:37:50;;;;;;;;;;;17.40;48.90;;;16.54;50.72;102072.25;12252538;19;19978;-82
2023/09/26 01:41:51;;;;;;;;;;;17.40;48.90;;;16.52;51.01;102063.56;12250915;19;20250;-82
2023/09/26 01:45:54;;;;;;;;;;;17.30;48.90;;;16.44;50.72;102064.97;12251192;19;19915;-81
2023/09/26 01:49:56;;;;;;;;;;;17.30;48.90;;;16.51;50.95;102072.44;12248946;19;19918;-82
2023/09/26 01:53:57;;;;;;;;;;;17.30;49.00;;;16.43;50.91;102052.72;12251663;19;19919;-81
2023/09/26 01:57:58;;;;;;;;;;;17.30;49.00;;;16.47;50.99;102068.28;12251482;19;19982;-82
2023/09/26 02:02:02;;;;;;;;;;;17.30;49.00;;;16.46;50.97;102068.38;12250799;19;19951;-82
2023/09/26 02:06:04;;;;;;;;;;;17.30;49.00;;;16.45;50.83;102074.59;12249401;19;20115;-81
2023/09/26 02:10:06;;;;;;;;;;;17.30;49.00;;;16.43;50.93;102064.13;12249087;19;20338;-82
2023/09/26 02:14:08;;;;;;;;;;;17.30;49.10;;;16.43;50.96;102069.41;12248949;19;20357;-82
2023/09/26 02:18:10;;;;;;;;;;;17.30;49.10;;;16.32;51.18;102056.84;12249915;19;19919;-82
2023/09/26 02:22:12;;;;;;;;;;;17.20;49.10;;;16.31;51.12;102056.91;12248362;19;19914;-81
2023/09/26 02:26:17;;;;;;;;;;;17.20;49.00;;;16.28;51.21;102060.59;12246825;19;19933;-82
2023/09/26 02:30:24;;;;;;;;;;;17.20;49.00;;;16.21;51.01;102055.78;12244430;19;19914;-82
2023/09/26 02:34:26;;;;;;;;;;;17.10;49.00;;;16.24;51.17;102063.50;12248493;19;19923;-81
2023/09/26 02:38:28;;;;;;;;;;;17.10;49.00;;;16.24;50.96;102066.97;12247660;19;19925;-82
2023/09/26 02:42:29;;;;;;;;;;;17.10;49.10;;;16.19;51.12;102071.66;12248521;19;19926;-81
2023/09/26 02:46:31;;;;;;;;;;;17.10;49.10;;;16.15;51.26;102065.72;12247090;19;19928;-82
2023/09/26 02:50:33;;;;;;;;;;;17.00;49.10;;;16.13;51.21;102057.06;12244929;19;19922;-82
2023/09/26 02:54:34;;;;;;;;;;;17.00;49.10;;;16.17;51.38;102067.41;12248607;19;19955;-82
2023/09/26 02:58:36;;;;;;;;;;;17.00;49.10;;;16.11;51.25;102058.06;12246178;19;19914;-82
2023/09/26 03:02:38;;;;;;;;;;;17.00;49.10;;;16.01;51.18;102049.00;12245385;19;20342;-82
2023/09/26 03:06:40;;;;;;;;;;;17.00;49.10;;;16.10;51.27;102061.66;12246624;19;19932;-82
2023/09/26 03:10:42;;;;;;;;;;;17.00;49.10;;;16.07;51.08;102073.22;12246046;19;19911;-82
2023/09/26 03:14:43;;;;;;;;;;;17.00;49.10;;;16.06;51.19;102065.38;12245296;19;19932;-82
2023/09/26 03:18:45;;;;;;;;;;;16.90;49.10;;;15.97;51.46;102058.03;12244720;19;19911;-82
2023/09/26 03:22:46;;;;;;;;;;;16.90;49.10;;;15.96;51.16;102059.81;12248397;19;19957;-82
2023/09/26 03:26:48;;;;;;;;;;;16.90;49.10;;;15.79;51.50;102029.13;12244120;19;19923;-82
2023/09/26 03:30:51;;;;;;;;;;;16.90;49.10;;;15.96;51.46;102053.66;12246664;19;19936;-82
2023/09/26 03:34:53;;;;;;;;;;;16.90;49.10;;;15.97;51.28;102050.94;12244907;19;19934;-82
2023/09/26 03:38:54;;;;;;;;;;;16.80;49.10;;;15.89;51.48;102048.75;12246855;19;19910;-82
2023/09/26 03:42:56;;;;;;;;;;;16.80;49.10;;;15.88;51.31;102054.97;12242442;19;19911;-82
2023/09/26 03:46:57;;;;;;;;;;;16.80;49.10;;;15.87;51.33;102045.34;12242537;19;19915;-82
2023/09/26 03:51:14;;;;;;;;;;;16.80;49.10;;;15.81;51.30;102040.44;12245391;19;19926;-82
2023/09/26 03:55:16;;;;;;;;;;;16.80;49.10;;;15.78;51.30;102040.59;12246260;19;19923;-83
2023/09/26 03:59:17;;;;;;;;;;;16.70;49.10;;;15.83;51.42;102051.75;12240507;19;19974;-83
2023/09/26 04:03:20;;;;;;;;;;;16.70;49.10;;;15.72;51.33;102030.41;12245259;19;20352;-83
2023/09/26 04:07:25;;;;;;;;;;;16.70;49.10;;;15.79;51.44;102042.28;12236537;19;19919;-83
2023/09/26 04:11:27;;;;;;;;;;;16.70;49.10;;;15.68;51.40;102028.84;12245084;19;19974;-83
2023/09/26 04:15:28;;;;;;;;;;;16.60;49.10;;;15.74;51.37;102032.94;12242939;19;19918;-83
2023/09/26 04:19:30;;;;;;;;;;;16.60;49.10;;;15.66;51.45;102020.19;12242658;19;19943;-82
2023/09/26 04:23:31;;;;;;;;;;;16.60;49.10;;;15.67;51.41;102029.78;12241783;19;19915;-82
2023/09/26 04:27:33;;;;;;;;;;;16.60;49.10;;;15.56;51.44;102013.75;12237447;19;20423;-82
2023/09/26 04:31:34;;;;;;;;;;;16.60;49.10;;;15.59;51.55;102022.31;12229819;19;20276;-82
2023/09/26 04:35:36;;;;;;;;;;;16.50;49.10;;;15.44;51.40;102004.72;12239705;19;19927;-82
2023/09/26 04:39:37;;;;;;;;;;;16.50;49.10;;;15.52;51.49;102028.00;12237891;19;19936;-82
2023/09/26 04:43:39;;;;;;;;;;;16.50;49.10;;;15.55;51.57;102033.94;12236826;19;19923;-82
2023/09/26 04:47:41;;;;;;;;;;;16.40;49.20;;;15.46;51.44;102022.13;12235214;19;19930;-82
2023/09/26 04:51:43;;;;;;;;;;;16.40;49.20;;;15.43;51.55;102017.03;12240540;19;20324;-82
2023/09/26 04:55:45;;;;;;;;;;;16.30;49.20;;;15.45;51.84;102025.72;12252549;19;19938;-82
2023/09/26 04:59:47;;;;;;;;;;;16.40;49.20;;;15.44;51.53;102029.25;12250993;19;19915;-82
2023/09/26 05:03:49;;;;;;;;;;;16.40;49.30;;;15.33;51.64;102007.94;12254180;19;19919;-82
2023/09/26 05:07:50;;;;;;;;;;;16.30;49.20;;;15.30;51.49;101999.38;12247152;19;19926;-82
2023/09/26 05:11:52;;;;;;;;;;;16.30;49.30;;;14.98;51.58;101957.22;12252445;19;20072;-82
2023/09/26 05:15:53;;;;;;;;;;;16.30;49.30;;;15.31;51.67;102014.22;12253677;19;20322;-82
2023/09/26 05:19:55;;;;;;;;;;;16.30;49.30;;;15.22;51.57;101999.78;12252084;19;20347;-82
2023/09/26 05:23:56;;;;;;;;;;;16.20;49.30;;;15.22;51.58;102010.31;12252213;19;19922;-82
2023/09/26 05:27:58;;;;;;;;;;;16.20;49.30;;;15.20;51.60;102012.16;12248627;19;19930;-82
2023/09/26 05:31:59;;;;;;;;;;;16.10;49.30;;;15.15;51.64;101995.78;12252619;19;19933;-82
2023/09/26 05:36:00;;;;;;;;;;;16.20;49.40;;;15.24;51.75;102013.72;12252152;19;19919;-82
2023/09/26 05:40:06;;;;;;;;;;;16.10;49.40;;;15.24;51.85;102014.56;12250274;19;19915;-82
2023/09/26 05:44:08;;;;;;;;;;;16.10;49.40;;;15.24;51.85;102008.47;12244033;19;19919;-82
2023/09/26 05:48:10;;;;;;;;;;;16.20;49.50;;;15.09;51.67;101988.22;12240473;19;19925;-81
2023/09/26 05:52:11;;;;;;;;;;;16.20;49.50;;;15.19;51.75;102010.50;12250078;19;20004;-81
2023/09/26 05:56:13;;;;;;;;;;;16.20;49.50;;;15.24;51.89;102019.81;12246184;19;20279;-81
2023/09/26 06:00:16;;;;;;;;;;;16.20;49.60;;;15.20;51.93;102009.53;12245156;19;19919;-81
2023/09/26 06:04:18;;;;;;;;;;;16.20;49.60;;;15.10;52.05;101982.91;12245015;19;19923;-84
2023/09/26 06:08:20;;;;;;;;;;;16.20;49.70;;;15.34;51.92;102030.72;12248931;19;19947;-81
2023/09/26 06:12:22;;;;;;;;;;;16.20;49.80;;;15.37;52.04;102040.22;12251771;19;19922;-81
2023/09/26 06:16:23;;;;;;;;;;;16.30;49.90;;;15.32;51.98;102032.56;12251217;19;19940;-81
2023/09/26 06:20:29;;;;;;;;;;;16.30;49.90;;;15.42;52.10;102038.22;12245553;19;20326;-81
2023/09/26 06:24:30;;;;;;;;;;;16.30;50.00;;;15.35;52.03;102013.13;12249274;19;19927;-81
2023/09/26 06:28:32;;;;;;;;;;;16.40;50.10;;;15.38;52.09;102020.88;12245312;19;20272;-81
2023/09/26 06:32:34;;;;;;;;;;;16.50;50.10;;;15.54;52.22;102044.56;12246089;19;19935;-81
2023/09/26 06:36:35;;;;;;;;;;;16.50;50.20;;;15.54;52.21;102031.41;12249480;19;19923;-82
2023/09/26 06:40:37;;;;;;;;;;;16.60;50.30;;;15.64;52.39;102043.97;12244821;19;19955;-81
2023/09/26 06:44:38;;;;;;;;;;;16.60;50.40;;;15.70;52.38;102040.19;12247670;19;19936;-81
2023/09/26 06:48:41;;;;;;;;;;;16.70;50.50;;;15.76;52.40;102042.47;12249166;19;19918;-81
2023/09/26 06:52:43;;;;;;;;;;;16.70;50.70;;;15.76;52.55;102029.28;12249491;19;20253;-82
2023/09/26 06:56:44;;;;;;;;;;;16.80;50.70;;;15.80;52.59;102020.31;12247224;19;19932;-81
2023/09/26 07:00:46;;;;;;;;;;;16.90;50.80;;;15.95;52.45;102037.00;12241532;19;20277;-81
2023/09/26 07:04:52;;;;;;;;;;;17.00;50.90;;;15.99;52.61;102032.44;12247796;19;19930;-81
2023/09/26 07:08:55;;;;;;;;;;;17.00;51.10;;;16.04;52.65;102033.88;12244248;19;19923;-81
2023/09/26 07:12:56;;;;;;;;;;;17.10;51.10;;;16.07;52.47;102020.50;12245326;19;20275;-81
2023/09/26 07:16:58;;;;;;;;;;;17.20;51.30;;;16.18;52.64;102027.81;12246385;19;19935;-81
2023/09/26 07:21:05;;;;;;;;;;;17.20;51.40;;;16.18;52.54;102014.63;12248199;19;19927;-82
2023/09/26 07:25:07;;;;;;;;;;;17.30;51.60;;;15.89;52.73;101961.81;12221726;19;20348;-81
2023/09/26 07:29:08;;;;;;;;;;;17.40;51.60;;;16.40;52.94;102039.72;12240457;19;19927;-81
2023/09/26 07:33:10;;;;;;;;;;;17.40;51.60;;;16.44;52.95;102036.81;12241122;19;19923;-82
2023/09/26 07:37:12;;;;;;;;;;;17.50;51.80;;;16.50;53.06;102025.03;12239631;19;19939;-82
2023/09/26 07:41:14;;;;;;;;;;;17.50;51.60;;;16.62;52.88;102036.66;12240587;19;19926;-81
2023/09/26 07:45:16;;;;;;;;;;;17.70;51.80;;;16.67;52.86;102040.72;12239563;19;19939;-81
2023/09/26 07:49:18;;;;;;;;;;;17.70;52.00;;;16.78;53.00;102048.03;12239258;19;19923;-81
2023/09/26 07:53:19;;;;;;;;;;;17.80;52.00;;;16.80;52.90;102040.88;12239440;19;19926;-82
2023/09/26 07:57:21;;;;;;;;;;;17.90;52.40;;;16.88;52.93;102051.81;12237169;19;19919;-81
2023/09/26 08:01:23;;;;;;;;;;;18.00;52.90;;;16.98;52.94;102054.72;12237909;19;19974;-81
2023/09/26 08:05:24;;;;;;;;;;;18.00;52.60;;;17.02;53.12;102051.81;12233226;19;19998;-81
2023/09/26 08:09:32;;;;;;;;;;;18.10;52.70;;;17.02;53.17;102045.69;12234191;19;19915;-81
2023/09/26 08:13:34;;;;;;;;;;;18.10;52.30;;;17.18;53.26;102058.81;12233030;19;19915;-81
2023/09/26 08:17:35;;;;;;;;;;;18.20;52.30;;;17.30;53.14;102060.66;12239165;19;19951;-81
2023/09/26 08:21:37;;;;;;;;;;;18.30;52.40;;;17.41;53.22;102054.72;12238049;19;19974;-81
2023/09/26 08:25:39;;;;;;;;;;;18.40;52.40;;;17.55;53.51;102060.00;12241693;19;19926;-81
2023/09/26 08:29:41;;;;;;;;;;;18.60;52.70;;;17.70;53.42;102064.28;12235563;19;19923;-81
2023/09/26 08:33:46;;;;;;;;;;;18.70;53.00;;;17.74;53.32;102035.03;12239282;19;19941;-81
2023/09/26 08:37:47;;;;;;;;;;;18.90;52.80;;;17.92;53.58;102044.44;12239424;19;19918;-82
2023/09/26 08:41:50;;;;;;;;;;;19.00;52.90;;;18.13;53.75;102055.41;12226818;19;20370;-81
2023/09/26 08:45:52;;;;;;;;;;;19.20;53.30;;;18.28;53.70;102040.31;12229168;19;19946;-81
2023/09/26 08:49:54;;;;;;;;;;;19.40;53.40;;;18.49;53.60;102038.03;12228083;19;19943;-82
2023/09/26 08:53:55;;;;;;;;;;;19.50;53.20;;;18.69;53.94;102041.97;12234024;19;19943;-82
2023/09/26 08:57:57;;;;;;;;;;;19.70;53.60;;;18.84;53.77;102029.50;12228018;19;19982;-81
2023/09/26 09:01:58;;;;;;;;;;;20.00;53.30;;;19.12;53.90;102029.28;12233022;19;19957;-81
2023/09/26 09:06:00;;;;;;;;;;;20.20;53.80;;;19.33;53.93;102024.25;12235527;19;19939;-81
2023/09/26 09:10:07;;;;;;;;;;;20.40;53.40;;;19.55;53.96;102026.22;12234982;19;20611;-81
2023/09/26 09:14:08;;;;;;;;;;;20.70;53.40;;;19.73;54.08;102008.13;12237160;19;19927;-82
2023/09/26 09:18:10;;;;;;;;;;;20.90;53.30;;;19.99;53.95;102003.56;12238871;19;19911;-81
2023/09/26 09:22:20;;;;;;;;;;;21.10;53.20;;;20.20;53.97;102009.06;12234128;19;19923;-82
2023/09/26 09:26:22;;;;;;;;;;;21.40;53.70;;;20.44;54.19;102008.16;12235130;19;20271;-82
2023/09/26 09:30:24;;;;;;;;;;;21.70;53.30;;;20.61;54.01;101999.78;12231578;19;19926;-81
2023/09/26 09:34:27;;;;;;;;;;;21.90;53.20;;;20.82;54.18;101993.75;12234674;19;19934;-82
2023/09/26 09:38:32;;;;;;;;;;;22.10;53.00;;;21.05;54.29;101998.09;12228585;19;19923;-82
2023/09/26 09:42:34;;;;;;;;;;;22.30;52.90;;;21.19;54.00;101981.88;12241351;19;20263;-81
2023/09/26 09:46:38;;;;;;;;;;;22.50;52.70;;;21.41;54.10;101980.19;12243365;19;19930;-81
2023/09/26 09:50:40;;;;;;;;;;;22.70;52.90;;;21.59;54.07;101986.66;12242177;19;19944;-81
2023/09/26 09:54:44;;;;;;;;;;;22.90;52.70;;;21.64;54.33;101957.91;12243228;19;19931;-82
2023/09/26 09:58:49;;;;;;;;;;;23.10;52.40;;;21.95;54.24;101981.09;12243338;19;19970;-82
2023/09/26 10:02:51;;;;;;;;;;;23.20;52.20;;;22.09;53.88;101973.66;12244052;19;19947;-82
2023/09/26 10:06:53;;;;;;;;;;;23.40;52.40;;;22.23;53.87;101958.38;12241115;19;19923;-82
2023/09/26 10:10:56;;;;;;;;;;;23.50;52.30;;;22.37;54.02;101955.38;12241824;19;19982;-82
2023/09/26 10:14:58;;;;;;;;;;;23.60;52.40;;;22.52;54.02;101955.84;12245525;19;19939;-83
2023/09/26 10:19:00;;;;;;;;;;;23.80;52.10;;;22.71;53.86;101960.41;12249079;19;19915;-82
2023/09/26 10:23:11;;;;;;;;;;;24.00;52.10;;;22.91;54.11;101954.19;12247839;19;19943;-82
2023/09/26 10:27:12;;;;;;;;;;;24.20;52.10;;;23.09;54.14;101958.94;12248398;19;19922;-83
2023/09/26 10:31:15;;;;;;;;;;;24.30;52.00;;;23.25;53.79;101953.91;12249825;19;19926;-84
2023/09/26 10:35:16;;;;;;;;;;;24.50;51.90;;;23.40;54.13;101951.69;12235322;19;20004;-82
2023/09/26 10:39:17;;;;;;;;;;;24.70;51.90;;;23.56;54.01;101941.31;12239355;19;19930;-82
2023/09/26 10:43:18;;;;;;;;;;;24.80;51.80;;;23.70;53.94;101945.38;12245934;19;19949;-82
2023/09/26 10:47:22;;;;;;;;;;;25.00;51.70;;;23.79;53.60;101931.25;12241569;19;19955;-82
2023/09/26 10:51:24;;;;;;;;;;;25.10;51.60;;;23.94;53.72;101934.28;12243490;19;20324;-81
2023/09/26 10:55:25;;;;;;;;;;;25.10;51.40;;;24.02;53.64;101921.09;12242183;19;19939;-82
2023/09/26 10:59:28;;;;;;;;;;;25.20;51.30;;;24.13;53.77;101919.25;12238819;19;20353;-81
2023/09/26 11:03:29;;;;;;;;;;;25.30;51.20;;;24.27;53.63;101921.44;12245389;19;19923;-81
2023/09/26 11:07:31;;;;;;;;;;;25.40;51.60;;;24.39;53.53;101919.44;12249859;19;19919;-82
2023/09/26 11:11:32;;;;;;;;;;;25.50;51.20;;;24.43;53.67;101904.81;12245345;19;20309;-82
2023/09/26 11:15:36;;;;;;;;;;;25.70;51.50;;;24.67;53.72;101920.34;12246915;19;19923;-82
2023/09/26 11:19:38;;;;;;;;;;;25.80;51.50;;;24.78;53.46;101909.44;12243381;19;19930;-82
2023/09/26 11:23:39;;;;;;;;;;;25.90;51.30;;;24.91;53.34;101919.78;12245002;19;19922;-83
2023/09/26 11:27:43;;;;;;;;;;;26.00;51.20;;;25.00;53.26;101910.88;12237187;19;19923;-83
2023/09/26 11:31:45;;;;;;;;;;;26.20;51.00;;;25.09;53.02;101917.16;12226732;19;20374;-82
2023/09/26 11:35:46;;;;;;;;;;;26.30;50.90;;;25.14;53.07;101906.84;12244847;19;19915;-83
2023/09/26 11:39:52;;;;;;;;;;;26.30;50.00;;;25.26;53.01;101904.84;12242391;19;20334;-81
2023/09/26 11:43:55;;;;;;;;;;;26.40;50.60;;;25.29;52.70;101880.47;12246451;19;19915;-82
2023/09/26 11:47:57;;;;;;;;;;;26.50;50.20;;;25.44;53.07;101886.09;12243712;19;19915;-82
2023/09/26 11:51:59;;;;;;;;;;;26.50;50.50;;;25.50;52.63;101872.13;12244745;19;19939;-83
2023/09/26 11:56:00;;;;;;;;;;;26.60;50.60;;;25.38;52.75;101834.94;12242930;19;20705;-83
2023/09/26 12:00:11;;;;;;;;;;;26.70;50.50;;;25.71;52.86;101879.81;12245065;19;19925;-85
2023/09/26 12:04:13;;;;;;;;;;;26.80;50.70;;;25.79;52.88;101861.97;12243313;19;19942;-84
2023/09/26 12:08:14;;;;;;;;;;;26.90;50.80;;;25.94;52.50;101864.09;12233085;19;19922;-83
2023/09/26 12:12:16;;;;;;;;;;;27.00;50.20;;;26.00;52.42;101861.63;12242909;19;19927;-83
2023/09/26 12:16:17;;;;;;;;;;;27.10;50.60;;;26.09;52.33;101859.03;12241688;19;19919;-83
2023/09/26 12:20:24;;;;;;;;;;;27.10;50.10;;;26.08;52.72;101850.13;12237139;19;19917;-83
2023/09/26 12:24:25;;;;;;;;;;;27.20;49.20;;;26.23;52.40;101859.25;12239587;19;20384;-83
2023/09/26 12:28:27;;;;;;;;;;;27.30;49.80;;;26.30;52.33;101846.03;12240974;19;19926;-83
2023/09/26 12:32:28;;;;;;;;;;;27.30;50.20;;;26.37;52.11;101838.22;12243470;19;19953;-83
2023/09/26 12:36:30;;;;;;;;;;;27.40;50.30;;;26.47;52.45;101845.13;12243698;19;19926;-82
2023/09/26 12:40:32;;;;;;;;;;;27.50;50.30;;;26.51;52.33;101832.25;12237393;19;19953;-83
2023/09/26 12:44:36;;;;;;;;;;;27.60;50.00;;;26.57;51.86;101845.03;12242351;19;19915;-83
2023/09/26 12:48:37;;;;;;;;;;;27.60;50.10;;;26.61;52.05;101840.19;12240987;19;19918;-83
2023/09/26 12:52:39;;;;;;;;;;;27.60;50.00;;;26.53;52.07;101826.75;12242369;19;19923;-83
2023/09/26 12:56:41;;;;;;;;;;;27.60;49.60;;;26.64;52.05;101837.16;12240651;19;19953;-84
2023/09/26 13:00:42;;;;;;;;;;;27.60;48.10;;;26.65;51.89;101820.94;12237444;19;19922;-84
2023/09/26 13:04:44;;;;;;;;;;;27.70;48.50;;;26.68;52.02;101819.75;12238978;19;19944;-83
2023/09/26 13:08:45;;;;;;;;;;;27.70;49.10;;;26.77;52.08;101824.16;12235912;19;19923;-84
2023/09/26 13:12:47;;;;;;;;;;;27.70;49.60;;;26.78;51.74;101807.03;12237124;19;19911;-82
2023/09/26 13:16:48;;;;;;;;;;;27.80;49.90;;;26.85;51.78;101815.28;12247840;19;19922;-83
2023/09/26 13:20:50;;;;;;;;;;;27.80;49.60;;;26.85;51.58;101805.41;12251142;19;19927;-82
2023/09/26 13:24:51;;;;;;;;;;;27.80;49.30;;;26.84;51.72;101801.03;12249944;19;19974;-83
2023/09/26 13:28:52;;;;;;;;;;;27.80;49.60;;;26.79;51.47;101787.31;12247601;19;19918;-82
2023/09/26 13:32:54;;;;;;;;;;;27.80;48.60;;;26.84;51.41;101787.66;12249712;19;19957;-84
2023/09/26 13:36:57;;;;;;;;;;;27.80;49.20;;;26.87;51.33;101786.47;12248665;19;19919;-82
2023/09/26 13:41:00;;;;;;;;;;;27.80;49.40;;;26.85;51.24;101788.47;12249054;19;19944;-83
2023/09/26 13:45:02;;;;;;;;;;;27.80;48.50;;;26.89;51.38;101785.28;12240408;19;19923;-84
2023/09/26 13:49:05;;;;;;;;;;;27.80;49.20;;;26.91;51.36;101777.91;12247699;19;19923;-82
2023/09/26 13:53:06;;;;;;;;;;;27.80;49.20;;;26.88;51.22;101770.22;12250624;19;19943;-82
2023/09/26 13:57:08;;;;;;;;;;;27.80;48.30;;;26.92;51.10;101773.38;12250359;19;19978;-83
2023/09/26 14:01:10;;;;;;;;;;;27.70;48.30;;;26.93;50.83;101761.69;12250612;19;19971;-83
2023/09/26 14:05:12;;;;;;;;;;;27.80;48.90;;;26.93;51.33;101765.19;12249482;19;20329;-82
2023/09/26 14:09:13;;;;;;;;;;;27.80;49.00;;;26.95;50.82;101753.44;12247304;19;20388;-82
2023/09/26 14:13:15;;;;;;;;;;;27.80;49.00;;;27.02;50.99;101763.34;12250315;19;19939;-82
2023/09/26 14:17:16;;;;;;;;;;;27.90;49.30;;;27.03;51.19;101757.00;12250057;19;19922;-83
2023/09/26 14:21:19;;;;;;;;;;;27.80;48.90;;;26.96;50.89;101741.75;12250078;19;19966;-82
2023/09/26 14:25:21;;;;;;;;;;;27.80;49.00;;;27.04;50.70;101745.25;12248697;19;19978;-81
2023/09/26 14:29:27;;;;;;;;;;;27.80;49.20;;;27.05;50.71;101754.13;12244126;19;19919;-81
2023/09/26 14:33:28;;;;;;;;;;;27.90;49.20;;;27.06;50.86;101758.50;12244142;19;19930;-82
2023/09/26 14:37:30;;;;;;;;;;;27.90;49.30;;;27.07;50.85;101755.63;12243848;19;19926;-83
2023/09/26 14:41:31;;;;;;;;;;;27.90;49.00;;;27.09;50.43;101764.34;12245312;19;19919;-83
2023/09/26 14:45:33;;;;;;;;;;;27.90;49.20;;;27.07;50.78;101761.00;12244978;19;19919;-83
2023/09/26 14:49:34;;;;;;;;;;;27.90;49.40;;;27.08;50.42;101756.47;12247271;19;19918;-83
2023/09/26 14:53:36;;;;;;;;;;;27.80;49.00;;;27.03;50.50;101757.00;12246402;19;19915;-83
2023/09/26 14:57:37;;;;;;;;;;;27.80;48.90;;;27.03;50.50;101756.13;12246681;19;19915;-82
2023/09/26 15:01:38;;;;;;;;;;;27.80;48.90;;;27.00;50.60;101748.41;12245416;19;19919;-81
2023/09/26 15:05:40;;;;;;;;;;;27.80;49.00;;;26.95;50.15;101740.03;12245112;19;19925;-83
2023/09/26 15:09:41;;;;;;;;;;;27.80;48.70;;;26.96;50.58;101749.78;12244561;19;19922;-82
2023/09/26 15:13:43;;;;;;;;;;;27.70;48.80;;;26.97;50.40;101749.59;12246605;19;19925;-82
2023/09/26 15:17:44;;;;;;;;;;;27.70;48.90;;;26.96;50.33;101747.09;12247224;19;20676;-82
2023/09/26 15:21:46;;;;;;;;;;;27.70;49.10;;;26.95;50.06;101740.03;12246362;19;19921;-83
2023/09/26 15:25:47;;;;;;;;;;;27.70;48.80;;;26.94;50.31;101747.25;12246678;19;19911;-82
2023/09/26 15:29:49;;;;;;;;;;;27.60;48.80;;;26.93;50.06;101738.38;12240899;19;19925;-82
2023/09/26 15:33:51;;;;;;;;;;;27.70;49.00;;;26.90;50.19;101737.88;12240114;19;20531;-82
2023/09/26 15:37:53;;;;;;;;;;;27.60;49.10;;;26.86;50.17;101726.63;12240878;19;19923;-82
2023/09/26 15:41:55;;;;;;;;;;;27.60;49.00;;;26.88;50.39;101735.34;12238021;19;19922;-82
2023/09/26 15:45:56;;;;;;;;;;;27.60;49.10;;;26.87;50.25;101730.19;12244884;19;20362;-82
2023/09/26 15:49:58;;;;;;;;;;;27.50;49.10;;;26.84;50.06;101741.22;12235083;19;20314;-81
2023/09/26 15:53:59;;;;;;;;;;;27.50;49.50;;;26.74;50.25;101719.94;12245588;19;19919;-82
2023/09/26 15:58:01;;;;;;;;;;;27.50;49.30;;;26.80;49.76;101735.34;12245515;19;20667;-82
2023/09/26 16:02:03;;;;;;;;;;;27.40;49.40;;;26.78;50.02;101733.84;12238700;19;20313;-82
2023/09/26 16:06:06;;;;;;;;;;;27.40;49.40;;;26.75;50.02;101731.50;12238025;19;19923;-82
2023/09/26 16:10:14;;;;;;;;;;;27.40;49.50;;;26.70;49.99;101729.31;12233890;19;20637;-81
2023/09/26 16:14:15;;;;;;;;;;;27.40;49.50;;;26.58;49.84;101722.63;12238964;19;19944;-82
2023/09/26 16:18:17;;;;;;;;;;;27.30;49.40;;;26.55;50.09;101733.66;12238362;19;20264;-82
2023/09/26 16:22:18;;;;;;;;;;;27.20;49.40;;;26.51;50.19;101734.94;12237007;19;19927;-82
2023/09/26 16:26:20;;;;;;;;;;;27.20;49.40;;;26.33;50.04;101722.53;12238634;19;19921;-82
2023/09/26 16:30:23;;;;;;;;;;;27.10;49.40;;;26.35;49.91;101741.09;12236301;19;20738;-80
2023/09/26 16:34:24;;;;;;;;;;;27.00;49.40;;;26.23;49.88;101735.22;12233173;19;19946;-83
2023/09/26 16:38:26;;;;;;;;;;;26.90;49.40;;;26.20;50.24;101738.22;12235122;19;19925;-82
2023/09/26 16:42:27;;;;;;;;;;;26.80;49.40;;;26.13;49.86;101742.56;12238132;19;19919;-82
2023/09/26 16:46:29;;;;;;;;;;;26.70;49.40;;;25.81;50.17;101710.09;12237443;19;19923;-83
2023/09/26 16:50:30;;;;;;;;;;;26.60;49.40;;;25.97;49.92;101735.28;12239752;19;19919;-83
2023/09/26 16:54:32;;;;;;;;;;;26.60;49.50;;;25.83;49.79;101739.38;12249726;19;19922;-83
2023/09/26 16:58:34;;;;;;;;;;;26.50;49.50;;;25.79;49.98;101752.25;12247692;19;20246;-82
2023/09/26 17:02:36;;;;;;;;;;;26.40;49.40;;;25.69;49.89;101743.50;12252615;19;19919;-83
2023/09/26 17:06:42;;;;;;;;;;;26.30;49.40;;;25.58;50.14;101747.28;12250252;19;19929;-83
2023/09/26 17:10:44;;;;;;;;;;;26.10;49.30;;;25.46;49.90;101743.19;12248397;19;19919;-82
2023/09/26 17:14:46;;;;;;;;;;;26.00;49.30;;;25.35;50.12;101735.44;12249586;19;19982;-82
2023/09/26 17:18:48;;;;;;;;;;;25.90;49.30;;;25.31;49.89;101744.78;12249562;19;19966;-83
2023/09/26 17:22:50;;;;;;;;;;;25.80;49.40;;;25.25;49.85;101753.41;12243936;19;19957;-83
2023/09/26 17:26:51;;;;;;;;;;;25.70;49.40;;;25.11;49.75;101744.06;12248782;19;19959;-82
2023/09/26 17:30:54;;;;;;;;;;;25.60;49.80;;;25.08;49.99;101765.78;12253242;19;19931;-82
2023/09/26 17:34:56;;;;;;;;;;;25.60;49.50;;;25.01;49.74;101764.72;12248455;19;19915;-82
2023/09/26 17:38:57;;;;;;;;;;;25.50;49.50;;;24.89;50.15;101762.25;12258091;19;19907;-84
2023/09/26 17:42:58;;;;;;;;;;;25.40;49.50;;;24.84;50.19;101758.38;12261341;19;19926;-83
2023/09/26 17:47:00;;;;;;;;;;;25.30;49.60;;;24.78;50.20;101772.34;12250656;19;19949;-84
2023/09/26 17:51:09;;;;;;;;;;;25.20;49.60;;;24.57;50.15;101749.44;12262743;19;19915;-84
2023/09/26 17:55:12;;;;;;;;;;;25.10;49.90;;;24.59;50.19;101763.47;12257588;19;19915;-84
2023/09/26 17:59:13;;;;;;;;;;;25.00;49.50;;;24.52;49.95;101762.44;12245414;19;19947;-82
2023/09/26 18:03:14;;;;;;;;;;;24.90;49.60;;;24.43;50.21;101764.09;12242858;19;20353;-82
2023/09/26 18:07:16;;;;;;;;;;;24.80;49.60;;;24.34;49.88;101764.19;12243050;19;19923;-82